Latest Weather Observations for Ulladulla

IDN60801

Issued at 6:52 pm EST Wednesday 19 September 2018 (issued every 10 minutes, with the page automatically refreshed every 10 minutes)

About weather observations | Map of weather stations | Latest weather observations for NSW | Other Formats
Station Details ID: 069138 Name: ULLADULLA AWS Lat: -35.36 Lon: 150.48 Height: 35.7 m
Data from the previous 72 hours. | See also: Recent months at Ulladulla
Date/Time
EST
Temp
°C
App
Temp
°C
Dew
Point
°C
Rel
Hum
%
Delta-T
°C
Wind Press
QNH
hPa
Press
MSL
hPa
Rain since
9am
mm
Dir  Spd
km/h
Gust
km/h
Spd
kts
Gust
kts
19/06:30pm 13.9 10.4 8.7 71 2.6 S 17 24 9 13 1013.6 1013.6 0.0
19/06:00pm 13.8 9.9 8.8 72 2.5 S 19 24 10 13 1013.0 1013.0 0.0
19/05:30pm 13.7 9.8 9.4 75 2.2 S 20 28 11 15 1012.3 1012.3 0.0
19/05:00pm 13.9 9.5 9.1 73 2.4 S 22 32 12 17 1011.3 1011.3 0.0
19/04:30pm 13.9 9.2 9.1 73 2.4 S 24 35 13 19 1010.6 1010.6 0.0
19/04:00pm 13.8 8.0 9.6 76 2.2 S 30 41 16 22 1010.0 1010.0 0.0
19/03:30pm 15.1 10.0 10.7 75 2.3 S 28 35 15 19 1009.5 1009.5 0.0
19/03:00pm 15.7 10.7 10.9 73 2.6 S 28 43 15 23 1008.9 1008.9 0.0
19/02:30pm 16.0 10.7 11.2 73 2.6 S 30 39 16 21 1008.3 1008.3 0.0
19/02:00pm 15.9 12.1 11.1 73 2.6 S 22 33 12 18 1007.8 1007.8 0.0
19/01:30pm 16.7 12.9 11.0 69 3.1 SSE 22 33 12 18 1007.4 1007.4 0.0
19/01:00pm 17.1 12.5 10.9 67 3.3 S 26 41 14 22 1007.0 1006.9 0.0
19/12:46pm 17.2 12.1 10.6 65 3.5 S 28 50 15 27 1006.6 1006.5 0.0
19/12:30pm 18.3 13.6 9.1 55 4.8 SSW 24 43 13 23 1006.7 1006.6 0.0
19/12:23pm 20.1 15.7 6.5 41 6.8 SW 19 44 10 24 1006.5 1006.4 0.0
19/12:00pm 25.4 18.7 -4.0 14 12.7 WNW 22 44 12 24 1006.1 1006.0 0.0
19/11:31am 25.3 16.9 -6.1 12 12.9 NW 30 48 16 26 1005.6 1005.5 0.0
19/11:30am 25.2 16.4 -6.2 12 12.9 NW 32 48 17 26 1005.6 1005.5 0.0
19/11:16am 25.3 17.3 -6.1 12 12.9 NW 28 46 15 25 1005.5 1005.4 0.0
19/11:00am 25.9 18.9 -6.8 11 13.4 NW 22 37 12 20 1005.4 1005.3 0.0
19/10:30am 25.2 18.3 -6.2 12 12.9 NW 22 44 12 24 1005.4 1005.3 0.0
19/10:15am 25.0 20.1 -3.4 15 12.3 NW 13 35 7 19 1005.7 1005.6 0.0
19/10:00am 19.8 16.6 6.9 43 6.5 N 13 24 7 13 1005.9 1005.8 0.0
19/09:30am 18.5 14.8 6.4 45 6.0 NNE 15 24 8 13 1006.3 1006.2 0.0
19/09:00am 18.7 14.6 4.5 39 6.8 NE 15 24 8 13 1006.7 1006.6 0.0
19/08:30am 17.7 14.4 4.3 41 6.3 N 11 19 6 10 1007.4 1007.4 0.0
19/08:00am 17.1 14.1 1.9 36 6.8 N 7 15 4 8 1007.7 1007.7 0.0
19/07:30am 17.6 14.5 0.3 31 7.5 N 6 11 3 6 1008.1 1008.1 0.0
19/07:00am 16.0 12.7 0.2 34 6.8 NNW 7 15 4 8 1008.1 1008.1 0.0
19/06:30am 12.8 9.9 1.2 45 4.9 NW 6 7 3 4 1007.9 1007.9 0.0
19/06:00am 14.1 11.6 1.4 42 5.5 NNW 4 7 2 4 1008.1 1008.1 0.0
19/05:30am 15.6 12.6 0.6 36 6.5 NNW 6 7 3 4 1007.6 1007.6 0.0
19/05:00am 17.0 13.6 -0.7 30 7.5 NNW 7 13 4 7 1007.9 1007.9 0.0
19/04:30am 15.8 12.6 0.8 36 6.5 NW 7 13 4 7 1007.9 1007.9 0.0
19/04:00am 16.0 12.6 1.7 38 6.3 NNW 9 15 5 8 1007.8 1007.8 0.0
19/03:30am 15.7 12.8 2.5 41 5.9 NW 7 13 4 7 1007.5 1007.5 0.0
19/03:00am 15.5 12.0 3.3 44 5.6 N 11 20 6 11 1007.4 1007.4 0.0
19/02:30am 16.5 13.8 3.9 43 5.9 NNW 7 15 4 8 1007.7 1007.7 0.0
19/02:00am 14.1 11.7 4.1 51 4.6 N 6 9 3 5 1008.4 1008.4 0.0
19/01:30am 15.0 12.5 4.7 50 4.8 NNW 7 13 4 7 1008.7 1008.7 0.0
19/01:00am 15.2 12.6 4.3 48 5.1 N 7 13 4 7 1009.0 1009.0 0.0
19/12:30am 15.4 12.5 4.5 48 5.1 N 9 13 5 7 1009.4 1009.4 0.0
19/12:00am 15.8 12.8 4.2 46 5.4 N 9 13 5 7 1009.8 1009.8 0.0
 
Date/Time
EST
Temp
°C
App
Temp
°C
Dew
Point
°C
Rel
Hum
%
Delta-T
°C
Wind Press
QNH
hPa
Press
MSL
hPa
Rain since
9am
mm
Dir  Spd
km/h
Gust
km/h
Spd
kts
Gust
kts
18/11:30pm 15.8 13.4 5.4 50 5.0 N 7 13 4 7 1009.8 1009.8 0.0
18/11:00pm 14.6 12.5 6.7 59 3.8 N 7 13 4 7 1010.2 1010.2 0.0
18/10:30pm 14.3 13.1 9.5 73 2.5 NNE 6 9 3 5 1010.7 1010.7 0.0
18/10:00pm 15.0 14.7 10.2 73 2.5 N 2 6 1 3 1011.1 1011.1 0.0
18/09:30pm 14.9 14.2 9.9 72 2.6 N 4 11 2 6 1011.3 1011.3 0.0
18/09:00pm 15.1 14.7 9.9 71 2.7 NNE 2 11 1 6 1011.5 1011.5 0.0
18/08:30pm 14.9 14.6 10.1 73 2.5 NNE 2 7 1 4 1011.6 1011.6 0.0
18/08:00pm 15.4 15.2 10.6 73 2.5 N 2 6 1 3 1011.6 1011.6 0.0
18/07:30pm 15.7 15.6 10.9 73 2.6 NNE 2 6 1 3 1011.6 1011.6 0.0
18/07:00pm 16.1 15.6 10.8 71 2.8 NE 4 15 2 8 1011.4 1011.4 0.0
18/06:30pm 16.5 14.2 10.6 68 3.1 NNE 13 24 7 13 1011.3 1011.3 0.0
18/06:00pm 16.7 14.0 10.5 67 3.3 N 15 20 8 11 1010.9 1010.9 0.0
18/05:30pm 16.7 15.0 11.2 70 3.0 NNW 11 20 6 11 1010.7 1010.7 0.0
18/05:00pm 17.1 15.1 10.2 64 3.7 NNE 11 22 6 12 1010.7 1010.7 0.0
18/04:30pm 17.7 15.7 10.3 62 3.9 NNE 11 26 6 14 1010.7 1010.7 0.0
18/04:00pm 18.1 15.4 10.2 60 4.2 NE 15 24 8 13 1010.7 1010.7 0.0
18/03:30pm 18.0 15.2 10.1 60 4.2 NNE 15 32 8 17 1010.9 1010.9 0.0
18/03:16pm 20.1 15.5 5.4 38 7.2 NNW 19 30 10 16 1011.1 1011.1 0.0
18/03:00pm 25.5 20.4 -4.9 13 12.8 NW 13 24 7 13 1010.9 1010.9 0.0
18/02:30pm 25.5 20.8 -4.9 13 12.8 NNW 11 20 6 11 1011.1 1011.1 0.0
18/02:00pm 24.4 18.5 -5.8 13 12.4 NNW 17 30 9 16 1011.4 1011.4 0.0
18/01:30pm 24.4 17.9 -5.8 13 12.4 NW 20 32 11 17 1011.8 1011.8 0.0
18/01:00pm 24.8 18.0 -5.5 13 12.6 NW 22 35 12 19 1012.4 1012.4 0.0
18/12:30pm 24.6 18.9 -3.7 15 12.1 NW 17 30 9 16 1013.1 1013.1 0.0
18/12:00pm 24.0 18.0 -3.3 16 11.7 NW 19 33 10 18 1013.7 1013.7 0.0
18/11:30am 23.2 18.9 -1.7 19 10.9 NNW 11 20 6 11 1014.5 1014.5 0.0
18/11:00am 22.1 17.9 -0.6 22 10.1 N 11 24 6 13 1015.0 1015.0 0.0
18/10:30am 19.0 16.2 7.1 46 6.0 N 11 24 6 13 1015.6 1015.6 0.0
18/10:00am 17.1 13.1 6.6 50 5.2 N 17 24 9 13 1016.0 1016.0 0.0
18/09:30am 16.9 13.7 7.0 52 4.9 N 13 22 7 12 1016.5 1016.5 0.0
18/09:00am 16.6 12.3 5.3 47 5.4 N 17 30 9 16 1016.9 1016.9 0.0
18/08:30am 15.9 11.1 4.6 47 5.3 N 19 26 10 14 1017.3 1017.3 0.0
18/08:00am 15.5 11.2 3.3 44 5.5 N 15 20 8 11 1017.5 1017.5 0.0
18/07:30am 14.2 10.6 2.8 46 5.1 N 11 19 6 10 1017.6 1017.6 0.0
18/07:00am 12.6 9.4 3.0 52 4.2 N 9 13 5 7 1017.5 1017.5 0.0
18/06:30am 12.4 9.0 3.9 56 3.8 N 11 19 6 10 1017.5 1017.5 0.0
18/06:00am 13.0 8.5 4.4 56 3.9 N 17 26 9 14 1017.5 1017.5 0.0
18/05:30am 13.1 8.3 4.5 56 3.9 N 19 28 10 15 1017.4 1017.4 0.0
18/05:00am 13.1 7.7 4.5 56 3.9 N 22 33 12 18 1017.2 1017.2 0.0
18/04:30am 13.3 7.7 5.5 59 3.7 N 24 33 13 18 1017.0 1017.0 0.0
18/04:00am 13.0 7.8 5.4 60 3.5 N 22 30 12 16 1017.1 1017.1 0.0
18/03:30am 12.9 8.9 5.1 59 3.6 N 15 22 8 12 1017.1 1017.1 0.0
18/03:00am 12.6 9.3 6.2 65 3.0 N 13 20 7 11 1017.5 1017.5 0.0
18/02:30am 12.4 8.9 5.6 63 3.2 N 13 20 7 11 1017.8 1017.8 0.0
18/02:00am 12.4 9.2 5.3 62 3.3 N 11 19 6 10 1018.2 1018.2 0.0
18/01:30am 12.5 9.1 5.9 64 3.1 N 13 20 7 11 1018.6 1018.6 0.0
18/01:00am 12.6 9.0 6.6 67 2.9 N 15 24 8 13 1018.7 1018.7 0.0
18/12:30am 12.8 9.4 5.7 62 3.3 N 13 20 7 11 1019.3 1019.3 0.0
18/12:00am 12.5 9.1 5.9 64 3.1 N 13 19 7 10 1019.5 1019.5 0.0
 
Date/Time
EST
Temp
°C
App
Temp
°C
Dew
Point
°C
Rel
Hum
%
Delta-T
°C
Wind Press
QNH
hPa
Press
MSL
hPa
Rain since
9am
mm
Dir  Spd
km/h
Gust
km/h
Spd
kts
Gust
kts
17/11:30pm 12.5 9.5 5.9 64 3.1 N 11 17 6 9 1019.6 1019.6 0.0
17/11:00pm 12.7 9.8 6.7 67 2.9 N 11 19 6 10 1019.9 1019.9 0.0
17/10:30pm 12.9 8.9 6.7 66 3.0 N 17 24 9 13 1020.0 1020.0 0.0
17/10:00pm 12.8 9.5 6.6 66 3.0 N 13 20 7 11 1020.1 1020.1 0.0
17/09:30pm 12.7 9.3 6.1 64 3.1 N 13 19 7 10 1020.2 1020.2 0.0
17/09:00pm 12.8 9.8 6.2 64 3.1 N 11 15 6 8 1020.4 1020.4 0.0
17/08:30pm 13.1 9.8 6.2 63 3.3 N 13 17 7 9 1020.4 1020.4 0.0
17/08:00pm 13.4 10.5 6.3 62 3.4 N 11 17 6 9 1020.3 1020.3 0.0
17/07:30pm 13.8 10.1 6.2 60 3.6 N 15 22 8 12 1020.2 1020.2 0.0
17/07:00pm 14.0 9.6 6.4 60 3.6 N 19 28 10 15 1020.1 1020.1 0.0
17/06:30pm 14.3 9.3 6.4 59 3.8 N 22 30 12 16 1020.0 1020.0 0.0
17/06:00pm 14.5 10.0 7.1 61 3.6 N 20 28 11 15 1019.8 1019.8 0.0
17/05:30pm 14.5 11.9 7.8 64 3.3 N 11 20 6 11 1019.6 1019.6 0.0
17/05:00pm 14.6 12.0 7.6 63 3.5 NNE 11 26 6 14 1019.5 1019.5 0.0
17/04:30pm 14.9 11.5 7.5 61 3.7 NNE 15 35 8 19 1019.5 1019.5 0.0
17/04:00pm 15.0 11.9 7.3 60 3.8 NNE 13 30 7 16 1019.5 1019.5 0.0
17/03:30pm 15.1 10.7 7.2 59 3.9 NE 20 37 11 20 1019.5 1019.5 0.0
17/03:00pm 14.7 8.7 7.0 60 3.8 NNE 28 39 15 21 1019.8 1019.8 0.0
17/02:30pm 14.7 9.4 7.0 60 3.8 NNE 24 35 13 19 1020.0 1020.0 0.0
17/02:00pm 14.7 9.7 6.3 57 4.0 NE 22 37 12 20 1020.4 1020.4 0.0
17/01:30pm 14.8 9.8 6.6 58 4.0 NE 22 35 12 19 1020.5 1020.5 0.0
17/01:00pm 15.2 11.2 6.7 57 4.1 NE 17 33 9 18 1020.9 1020.9 0.0
17/12:30pm 15.5 11.6 7.0 57 4.2 NE 17 32 9 17 1021.3 1021.3 0.0
17/12:00pm 15.7 11.6 6.2 53 4.6 NE 17 30 9 16 1021.8 1021.8 0.0
17/11:30am 15.2 11.5 6.2 55 4.3 NE 15 24 8 13 1022.6 1022.6 0.0
17/11:00am 14.8 11.0 5.6 54 4.4 NNE 15 24 8 13 1023.3 1023.3 0.0
17/10:30am 14.4 10.5 5.5 55 4.2 NNE 15 22 8 12 1023.8 1023.8 0.0
17/10:00am 14.2 11.1 5.6 56 4.1 NNE 11 17 6 9 1024.3 1024.3 0.0
17/09:30am 13.2 10.6 5.9 61 3.5 NNE 9 11 5 6 1024.7 1024.7 0.0
17/09:00am 13.6 11.3 5.5 58 3.8 NNE 7 11 4 6 1024.7 1024.7 0.0
17/08:30am 13.2 10.9 4.6 56 4.0 NNE 6 7 3 4 1025.0 1025.0 0.0
17/08:00am 13.5 12.3 4.4 54 4.2 CALM 0 0 0 0 1024.9 1024.9 0.0
17/07:30am 11.9 10.7 4.6 61 3.3 CALM 0 0 0 0 1024.7 1024.7 0.0
17/07:00am 10.4 8.7 4.1 65 2.8 W 2 6 1 3 1024.4 1024.4 0.0
17/06:30am 7.8 6.3 2.9 71 2.1 CALM 0 0 0 0 1024.1 1024.1 0.0
17/06:00am 8.1 6.8 4.1 76 1.7 CALM 0 0 0 0 1024.0 1024.0 0.0
17/05:30am 8.6 7.4 4.4 75 1.8 CALM 0 0 0 0 1023.8 1023.8 0.0
17/05:00am 8.1 6.6 2.8 69 2.2 CALM 0 0 0 0 1023.6 1023.6 0.0
17/04:30am 8.3 6.8 3.0 69 2.3 CALM 0 0 0 0 1023.3 1023.3 0.0
17/04:00am 7.7 6.1 2.4 69 2.2 CALM 0 0 0 0 1023.0 1023.0 0.0
17/03:30am 7.8 5.4 2.3 68 2.3 WNW 4 6 2 3 1022.9 1022.9 0.0
17/03:00am 7.9 5.9 2.2 67 2.4 WNW 2 4 1 2 1023.0 1023.0 0.0
17/02:30am 8.3 5.5 2.3 66 2.5 WNW 6 7 3 4 1023.0 1023.0 0.0
17/02:00am 8.6 6.2 2.4 65 2.6 WNW 4 6 2 3 1023.0 1023.0 0.0
17/01:30am 8.7 6.4 2.5 65 2.6 WNW 4 6 2 3 1023.3 1023.3 0.0
17/01:00am 8.9 6.2 2.7 65 2.6 WNW 6 6 3 3 1023.5 1023.5 0.0
17/12:30am 9.1 6.8 2.7 64 2.7 WNW 4 6 2 3 1023.5 1023.5 0.0
17/12:00am 9.4 6.7 2.9 64 2.8 WNW 6 7 3 4 1023.4 1023.4 0.0
 
Date/Time
EST
Temp
°C
App
Temp
°C
Dew
Point
°C
Rel
Hum
%
Delta-T
°C
Wind Press
QNH
hPa
Press
MSL
hPa
Rain since
9am
mm
Dir  Spd
km/h
Gust
km/h
Spd
kts
Gust
kts
16/11:30pm 9.4 6.7 2.9 64 2.8 WNW 6 7 3 4 1023.4 1023.4 0.0
16/11:00pm 9.0 6.1 2.6 64 2.7 W 7 9 4 5 1023.6 1023.6 0.0
16/10:30pm 9.0 6.2 2.3 63 2.8 W 6 9 3 5 1023.6 1023.6 0.0
16/10:00pm 9.0 6.2 2.1 62 2.9 W 6 7 3 4 1023.6 1023.6 0.0
16/09:30pm 9.4 6.6 2.0 60 3.1 W 6 7 3 4 1023.5 1023.5 0.0
16/09:00pm 10.0 7.3 2.4 59 3.2 W 6 7 3 4 1023.2 1023.2 0.0
16/08:30pm 10.1 7.3 2.2 58 3.3 W 6 7 3 4 1023.0 1023.0 0.0
16/08:00pm 12.1 9.0 3.6 56 3.8 S 9 17 5 9 1022.7 1022.7 0.0
16/07:30pm 12.2 8.7 3.4 55 3.9 S 11 17 6 9 1022.2 1022.2 0.0
16/07:00pm 12.3 8.0 3.3 54 4.0 SSE 15 20 8 11 1021.8 1021.8 0.0

Other Formats:

Comma delimited format used in spreadsheet applications
http://www.bom.gov.au/fwo/IDN60801/IDN60801.94938.axf

JavaScript Object Notation format (JSON) in row-major order
http://www.bom.gov.au/fwo/IDN60801/IDN60801.94938.json